Arletta, WA

8:21 AM PST on December 18, 2014 (GMT -0800)
Cromwell Beach | Change Station
CLOSE
Current Station
Personal Weather Station
Location: Gig Harbor, WA
Elevation: 15 ft
Nearby Weather Stations

Elev 15 ft 47.27 °N, 122.62 °W | Updated 1 minute ago

Scattered Clouds
Scattered Clouds
45.2 °F
Feels Like 45 °F
N
0.0
Wind Variable Wind from WSW
Gusts 1.0 mph

Today
High -- | Low -- °F
--% Chance of Precip.
Yesterday
High -- | Low -- °F
Precip. -- in
7:52 AM 4:21 PM
Waning Crescent, 13% visible
Pressure 29.93 in
Visibility 10.0 miles
Clouds Few 500 ft
Scattered Clouds 5000 ft
Windchill 45 °F
Dew Point 44 °F
Humidity 95%
Rainfall 0.02 in
Snow Depth Not available.
UV 0 out of 12
Pollen .70 out of 12
Air Quality Not available.
Flu Activity Not available.
METAR KTIW 181553Z 00000KT 10SM FEW005 SCT050 07/06 A2993 RMK AO2 SLP135 T00720061

More Conditions Fewer Conditions

Pressure 29.93 in
Visibility 10.0 miles
Clouds Few 500 ft
Scattered Clouds 5000 ft
Windchill 45 °F
Dew Point 44 °F
Humidity 95%
Rainfall 0.02 in
Snow Depth Not available.
UV 0 out of 12
Pollen .70 out of 12
Air Quality Not available.
Flu Activity Not available.
METAR KTIW 181553Z 00000KT 10SM FEW005 SCT050 07/06 A2993 RMK AO2 SLP135 T00720061

More Conditions Fewer Conditions

10-Day Weather Forecast

Almanac

Astronomy

Dec. 18, 2014 Rise Set
Actual Time
Civil Twilight
Nautical Twilight
Astronomical Twilight
Moon
Length of Visible Light
Length of Day
Tomorrow will be .
, % of the Moon is Illuminated

Today's Extremes

State Highs State Lows

Community

WunderPhotos

Upload Photos

1,778,955 photos uploaded!

WunderBlogs® & News

Nearby

Air Quality

  Air Quality AQ Index Pollutant
Not available.

Snow Depth

Station Depth Elevation

Earthquake Activity

City Distance Mag. Time & Date
Minimum magnitude displayed is 2.5.

Coastal Water Temperatures

Place Temperature

Nearby Weather Stations